createdAt,value
2018-10-21T00:01:20.289Z,11.03
2018-10-21T00:03:48.531Z,8.78
2018-10-21T00:06:16.784Z,8.33
2018-10-21T00:08:45.094Z,7.25
2018-10-21T00:11:13.785Z,7.43
2018-10-21T00:13:41.961Z,8.53
2018-10-21T00:16:10.336Z,10.13
2018-10-21T00:18:38.595Z,6.90
2018-10-21T00:21:07.068Z,6.27
2018-10-21T00:23:35.401Z,7.53
2018-10-21T00:26:03.571Z,4.97
2018-10-21T00:28:31.741Z,8.78
2018-10-21T00:30:59.990Z,7.87
2018-10-21T00:33:28.265Z,9.78
2018-10-21T00:35:56.497Z,7.27
2018-10-21T00:38:24.755Z,8.15
2018-10-21T00:40:53.040Z,8.25
2018-10-21T00:43:23.481Z,9.20
2018-10-21T00:45:51.720Z,11.33
2018-10-21T00:48:19.968Z,10.43
2018-10-21T00:50:48.232Z,9.77
2018-10-21T00:53:16.467Z,8.68
2018-10-21T00:55:44.711Z,11.23
2018-10-21T00:58:12.945Z,9.03
2018-10-21T01:00:41.198Z,9.48
2018-10-21T01:03:09.645Z,9.58
2018-10-21T01:05:37.984Z,10.33
2018-10-21T01:08:06.237Z,8.68
2018-10-21T01:10:34.620Z,6.17
2018-10-21T01:13:02.840Z,8.05
2018-10-21T01:15:31.098Z,8.77
2018-10-21T01:17:59.291Z,7.50
2018-10-21T01:20:27.509Z,10.53
2018-10-21T01:22:55.719Z,8.80
2018-10-21T01:25:25.594Z,7.00
2018-10-21T01:27:53.841Z,9.80
2018-10-21T01:30:22.043Z,7.47
2018-10-21T01:32:50.349Z,8.00
2018-10-21T01:35:22.196Z,7.10
2018-10-21T01:37:50.492Z,7.65
2018-10-21T01:40:40.973Z,8.05
2018-10-21T01:43:10.374Z,8.58
2018-10-21T01:45:38.657Z,7.43
2018-10-21T01:48:08.001Z,8.43
2018-10-21T01:50:36.188Z,8.23
2018-10-21T01:53:05.484Z,8.58
2018-10-21T01:55:33.915Z,8.07
2018-10-21T01:58:02.442Z,7.60
2018-10-21T02:00:31.418Z,5.33
2018-10-21T02:03:06.359Z,9.63
2018-10-21T02:05:35.400Z,7.70
2018-10-21T02:08:03.680Z,7.55
2018-10-21T02:10:31.908Z,7.93
2018-10-21T02:13:00.100Z,6.62
2018-10-21T02:15:29.614Z,5.53
2018-10-21T02:17:57.837Z,9.23
2018-10-21T02:20:26.458Z,7.05
2018-10-21T02:22:54.721Z,6.00
2018-10-21T02:25:23.890Z,8.13
2018-10-21T02:27:52.990Z,6.87
2018-10-21T02:30:22.416Z,7.45
2018-10-21T02:32:51.335Z,7.20
2018-10-21T02:35:19.997Z,6.62
2018-10-21T02:37:48.598Z,10.85
2018-10-21T02:41:33.132Z,10.43
2018-10-21T02:44:01.535Z,8.18
2018-10-21T02:46:30.100Z,8.37
2018-10-21T02:48:59.097Z,9.73
2018-10-21T02:51:32.576Z,9.27
2018-10-21T02:54:00.799Z,7.17
2018-10-21T02:56:28.995Z,10.28
2018-10-21T02:58:57.260Z,7.20
2018-10-21T03:01:29.168Z,6.87
2018-10-21T03:03:57.373Z,6.78
2018-10-21T03:06:30.702Z,7.83
2018-10-21T03:08:58.932Z,9.75
2018-10-21T03:11:27.134Z,9.10
2018-10-21T03:13:55.376Z,9.35
2018-10-21T03:16:23.617Z,9.97
2018-10-21T03:18:51.859Z,7.92
2018-10-21T03:21:20.146Z,10.80
2018-10-21T03:23:48.345Z,8.33
2018-10-21T03:26:16.609Z,9.70
2018-10-21T03:28:44.848Z,7.92
2018-10-21T03:31:13.346Z,9.43
2018-10-21T03:33:41.885Z,7.53
2018-10-21T03:36:10.123Z,6.80
2018-10-21T03:38:38.373Z,8.18
2018-10-21T03:41:06.572Z,11.17
2018-10-21T03:43:35.109Z,7.78
2018-10-21T03:46:03.352Z,8.17
2018-10-21T03:48:31.571Z,10.55
2018-10-21T03:50:59.842Z,7.40
2018-10-21T03:53:33.070Z,10.28
2018-10-21T03:56:01.365Z,10.17
2018-10-21T03:58:29.609Z,8.73
2018-10-21T04:00:57.830Z,8.87
2018-10-21T04:03:26.045Z,9.90
2018-10-21T04:05:54.251Z,8.50
2018-10-21T04:08:22.524Z,10.05
2018-10-21T04:10:50.716Z,7.17
2018-10-21T04:13:19.898Z,8.30
2018-10-21T04:15:48.135Z,6.95
2018-10-21T04:18:16.353Z,7.00
2018-10-21T04:20:44.542Z,6.30
2018-10-21T04:23:12.724Z,7.87
2018-10-21T04:25:41.242Z,9.35
2018-10-21T04:28:10.081Z,7.05
2018-10-21T04:30:40.372Z,7.08
2018-10-21T04:33:42.689Z,7.08
2018-10-21T04:36:12.316Z,6.67
2018-10-21T04:38:51.861Z,7.97
2018-10-21T04:41:20.741Z,13.10
2018-10-21T04:43:48.965Z,8.55
2018-10-21T04:46:17.223Z,7.23
2018-10-21T04:48:45.432Z,10.13
2018-10-21T04:51:13.644Z,9.13
2018-10-21T04:53:41.941Z,7.53
2018-10-21T04:56:10.247Z,8.73
2018-10-21T04:58:38.410Z,7.78
2018-10-21T05:01:06.639Z,7.37
2018-10-21T05:03:35.807Z,9.95
2018-10-21T05:06:04.103Z,5.78
2018-10-21T05:08:32.282Z,7.20
2018-10-21T05:11:00.481Z,7.63
2018-10-21T05:13:30.144Z,9.00
2018-10-21T05:15:58.446Z,7.60
2018-10-21T05:18:26.848Z,8.10
2018-10-21T05:20:58.134Z,10.13
2018-10-21T05:23:26.417Z,9.10
2018-10-21T05:25:54.637Z,10.07
2018-10-21T05:28:22.881Z,8.68
2018-10-21T05:30:54.151Z,9.07
2018-10-21T05:33:22.832Z,7.55
2018-10-21T05:35:51.151Z,6.90
2018-10-21T05:38:19.360Z,10.58
2018-10-21T05:40:47.544Z,7.97
2018-10-21T05:43:15.787Z,9.90
2018-10-21T05:45:44.036Z,8.67
2018-10-21T05:48:12.264Z,7.45
2018-10-21T05:50:40.537Z,11.87
2018-10-21T05:53:08.900Z,10.82
2018-10-21T05:55:38.739Z,7.20
2018-10-21T05:58:06.997Z,8.95
2018-10-21T06:00:35.185Z,10.00
2018-10-21T06:03:03.424Z,7.67
2018-10-21T06:05:39.228Z,10.53
2018-10-21T06:08:07.747Z,7.08
2018-10-21T06:10:35.927Z,9.23
2018-10-21T06:13:04.419Z,7.80
2018-10-21T06:15:34.217Z,8.67
2018-10-21T06:18:03.425Z,9.58
2018-10-21T06:20:33.851Z,10.23
2018-10-21T06:23:02.085Z,7.75
2018-10-21T06:25:30.316Z,8.93
2018-10-21T06:27:58.531Z,8.15
2018-10-21T06:30:26.761Z,9.13
2018-10-21T06:32:55.018Z,8.68
2018-10-21T06:35:23.737Z,8.88
2018-10-21T06:37:52.032Z,9.20
2018-10-21T06:40:20.239Z,9.30
2018-10-21T06:42:48.439Z,9.55
2018-10-21T06:45:16.807Z,7.87
2018-10-21T06:47:44.854Z,9.33
2018-10-21T06:50:16.272Z,12.55
2018-10-21T06:52:44.485Z,9.18
2018-10-21T06:55:13.195Z,9.70
2018-10-21T06:57:41.797Z,7.83
2018-10-21T07:00:10.096Z,10.03
2018-10-21T07:02:38.349Z,7.78
2018-10-21T07:05:18.474Z,8.10
2018-10-21T07:07:46.727Z,8.68
2018-10-21T07:10:14.992Z,10.55
2018-10-21T07:12:43.260Z,9.63
2018-10-21T07:15:12.207Z,8.70
2018-10-21T07:17:44.155Z,8.00
2018-10-21T07:20:12.348Z,7.80
2018-10-21T07:22:41.332Z,7.25
2018-10-21T07:25:10.118Z,8.03
2018-10-21T07:27:45.453Z,9.23
2018-10-21T07:30:14.035Z,7.78
2018-10-21T07:32:43.147Z,9.20
2018-10-21T07:35:13.088Z,8.97
2018-10-21T07:37:42.779Z,8.40
2018-10-21T07:40:12.006Z,7.53
2018-10-21T07:42:40.369Z,8.10
2018-10-21T07:45:08.852Z,8.77
2018-10-21T07:47:42.209Z,8.27
2018-10-21T07:50:10.409Z,8.27
2018-10-21T07:52:38.648Z,7.57
2018-10-21T07:55:07.038Z,6.80
2018-10-21T07:57:36.995Z,7.03
2018-10-21T08:00:05.358Z,6.73
2018-10-21T08:02:33.573Z,5.93
2018-10-21T08:05:01.781Z,6.03
2018-10-21T08:07:41.337Z,5.40
2018-10-21T08:10:09.554Z,6.03
2018-10-21T08:12:37.793Z,4.83
2018-10-21T08:15:06.093Z,6.20
2018-10-21T08:17:37.793Z,5.30
2018-10-21T08:20:07.082Z,6.27
2018-10-21T08:22:35.291Z,5.83
2018-10-21T08:25:03.539Z,5.90
2018-10-21T08:27:54.881Z,5.77
2018-10-21T08:30:23.033Z,6.57
2018-10-21T08:32:51.435Z,6.27
2018-10-21T08:35:21.159Z,5.60
2018-10-21T08:38:09.229Z,4.70
2018-10-21T08:40:37.427Z,4.93
2018-10-21T08:43:05.937Z,6.57
2018-10-21T08:45:54.777Z,4.90
2018-10-21T08:48:22.936Z,5.23
2018-10-21T08:50:51.143Z,4.00
2018-10-21T08:53:19.337Z,4.70
2018-10-21T08:55:53.091Z,5.50
2018-10-21T08:58:21.271Z,4.13
2018-10-21T09:00:49.481Z,5.12
2018-10-21T09:03:17.692Z,4.77
2018-10-21T09:05:55.300Z,7.37
2018-10-21T09:08:23.670Z,4.53
2018-10-21T09:10:51.871Z,5.80
2018-10-21T09:13:20.103Z,5.67
2018-10-21T09:15:55.251Z,7.00
2018-10-21T09:18:23.401Z,5.33
2018-10-21T09:20:51.629Z,6.90
2018-10-21T09:23:20.692Z,8.33
2018-10-21T09:25:55.516Z,7.03
2018-10-21T09:28:23.785Z,5.33
2018-10-21T09:30:51.993Z,4.70
2018-10-21T09:33:20.190Z,7.20
2018-10-21T09:35:56.339Z,5.17
2018-10-21T09:38:24.516Z,7.00
2018-10-21T09:40:52.741Z,6.30
2018-10-21T09:43:20.951Z,5.30
2018-10-21T09:45:55.688Z,5.83
2018-10-21T09:48:23.896Z,8.17
2018-10-21T09:50:52.111Z,5.37
2018-10-21T09:53:20.301Z,6.30
2018-10-21T09:55:48.562Z,5.70
2018-10-21T09:58:16.801Z,7.67
2018-10-21T10:00:50.275Z,5.50
2018-10-21T10:03:18.469Z,5.10
2018-10-21T10:05:57.214Z,5.47
2018-10-21T10:08:25.465Z,6.43
2018-10-21T10:10:53.698Z,6.53
2018-10-21T10:13:21.926Z,5.60
2018-10-21T10:15:57.039Z,4.97
2018-10-21T10:18:25.243Z,6.03
2018-10-21T10:20:53.451Z,9.53
2018-10-21T10:23:21.763Z,6.13
2018-10-21T10:25:53.905Z,5.23
2018-10-21T10:28:22.145Z,4.93
2018-10-21T10:30:50.301Z,6.23
2018-10-21T10:33:18.521Z,5.23
2018-10-21T10:35:58.805Z,5.60
2018-10-21T10:38:27.063Z,4.23
2018-10-21T10:40:55.240Z,5.23
2018-10-21T10:43:23.452Z,4.43
2018-10-21T10:46:08.235Z,5.63
2018-10-21T10:48:36.359Z,4.63
2018-10-21T10:51:04.748Z,4.73
2018-10-21T10:56:31.346Z,4.83
2018-10-21T10:58:59.696Z,4.70
2018-10-21T11:01:30.025Z,4.57
2018-10-21T11:04:00.004Z,3.77
2018-10-21T11:06:28.246Z,5.03
2018-10-21T11:08:56.470Z,5.90
2018-10-21T11:11:24.666Z,5.27
2018-10-21T11:13:52.890Z,5.23
2018-10-21T11:16:21.096Z,4.47
2018-10-21T11:18:49.341Z,4.03
2018-10-21T11:21:17.547Z,4.37
2018-10-21T11:23:57.500Z,4.07
2018-10-21T11:26:25.692Z,5.90
2018-10-21T11:28:53.908Z,4.17
2018-10-21T11:31:22.142Z,4.27
2018-10-21T11:33:57.889Z,2.33
2018-10-21T11:36:26.172Z,2.97
2018-10-21T11:38:54.415Z,5.00
2018-10-21T11:41:22.857Z,2.57
2018-10-21T11:43:59.430Z,3.33
2018-10-21T11:46:27.746Z,3.43
2018-10-21T11:48:55.945Z,2.33
2018-10-21T11:51:24.193Z,2.90
2018-10-21T11:53:59.522Z,1.90
2018-10-21T11:56:27.740Z,2.87
2018-10-21T11:58:55.973Z,5.97
2018-10-21T12:01:24.170Z,3.40
2018-10-21T12:04:05.544Z,2.07
2018-10-21T12:06:33.812Z,2.10
2018-10-21T12:09:02.283Z,1.77
2018-10-21T12:11:32.856Z,2.67
2018-10-21T12:14:01.172Z,3.20
2018-10-21T12:16:29.395Z,3.47
2018-10-21T12:18:57.724Z,2.27
2018-10-21T12:21:25.903Z,3.60
2018-10-21T12:23:54.673Z,2.30
2018-10-21T12:26:22.925Z,2.43
2018-10-21T12:28:51.168Z,2.20
2018-10-21T12:31:19.504Z,3.97
2018-10-21T12:33:51.241Z,1.53
2018-10-21T12:36:19.455Z,6.50
2018-10-21T12:38:47.668Z,2.00
2018-10-21T12:41:15.946Z,4.10
2018-10-21T12:43:52.919Z,4.13
2018-10-21T12:46:21.139Z,3.73
2018-10-21T12:48:49.343Z,3.83
2018-10-21T12:51:17.560Z,2.77
2018-10-21T12:53:52.103Z,3.73
2018-10-21T12:56:20.315Z,2.77
2018-10-21T12:58:48.503Z,3.33
2018-10-21T13:01:16.719Z,3.30
2018-10-21T13:03:45.319Z,2.97
2018-10-21T13:06:13.531Z,3.00
2018-10-21T13:08:41.783Z,4.80
2018-10-21T13:11:10.176Z,2.03
2018-10-21T13:13:38.619Z,4.17
2018-10-21T13:16:07.350Z,2.53
2018-10-21T13:18:35.687Z,2.53
2018-10-21T13:21:03.909Z,3.93
2018-10-21T13:23:32.777Z,2.20
2018-10-21T13:26:01.374Z,2.20
2018-10-21T13:28:29.670Z,2.23
2018-10-21T13:30:57.900Z,3.87
2018-10-21T13:33:26.066Z,3.17
2018-10-21T13:35:54.510Z,1.73
2018-10-21T13:38:22.740Z,2.13
2018-10-21T13:40:50.999Z,3.30
2018-10-21T13:43:19.311Z,1.10
2018-10-21T13:45:53.239Z,1.80
2018-10-21T13:48:21.412Z,1.50
2018-10-21T13:50:49.612Z,2.10
2018-10-21T13:53:17.862Z,1.83
2018-10-21T13:55:52.641Z,3.17
2018-10-21T13:58:20.929Z,2.17
2018-10-21T14:00:49.151Z,1.27
2018-10-21T14:03:17.368Z,1.60
2018-10-21T14:05:52.066Z,6.93
2018-10-21T14:08:20.295Z,2.60
2018-10-21T14:10:48.475Z,2.17
2018-10-21T14:13:16.742Z,3.90
2018-10-21T14:15:53.882Z,2.10
2018-10-21T14:18:22.046Z,2.03
2018-10-21T14:20:50.302Z,3.00
2018-10-21T14:23:18.549Z,1.50
2018-10-21T14:25:52.502Z,2.40
2018-10-21T14:28:20.688Z,2.13
2018-10-21T14:30:48.994Z,1.67
2018-10-21T14:33:17.214Z,2.47
2018-10-21T14:35:45.412Z,2.47
2018-10-21T14:38:13.695Z,2.53
2018-10-21T14:40:41.929Z,1.57
2018-10-21T14:43:10.213Z,1.90
2018-10-21T14:45:38.585Z,1.90
2018-10-21T14:48:06.738Z,2.97
2018-10-21T14:50:34.958Z,2.63
2018-10-21T14:53:03.245Z,3.40
2018-10-21T14:55:31.616Z,1.47
2018-10-21T14:58:00.149Z,1.97
2018-10-21T15:00:28.597Z,1.23
2018-10-21T15:02:56.861Z,2.53
2018-10-21T15:05:25.041Z,1.73
2018-10-21T15:08:10.471Z,1.37
2018-10-21T15:10:39.444Z,3.83
2018-10-21T15:13:07.671Z,1.30
2018-10-21T15:15:36.716Z,1.70
2018-10-21T15:18:05.171Z,2.60
2018-10-21T15:20:33.313Z,4.03
2018-10-21T15:23:01.721Z,0.97
2018-10-21T15:25:29.820Z,1.13
2018-10-21T15:27:58.412Z,1.83
2018-10-21T15:30:26.746Z,1.17
2018-10-21T15:32:54.945Z,1.50
2018-10-21T15:35:23.137Z,2.63
2018-10-21T15:37:58.063Z,1.37
2018-10-21T15:40:26.312Z,1.73
2018-10-21T15:42:54.510Z,1.60
2018-10-21T15:45:22.884Z,1.90
2018-10-21T15:48:00.954Z,1.80
2018-10-21T15:50:29.249Z,1.77
2018-10-21T15:52:57.468Z,1.57
2018-10-21T15:55:25.691Z,2.07
2018-10-21T15:58:02.094Z,0.90
2018-10-21T16:00:30.329Z,1.90
2018-10-21T16:02:58.571Z,1.03
2018-10-21T16:05:26.772Z,1.53
2018-10-21T16:08:06.627Z,1.03
2018-10-21T16:10:34.785Z,1.00
2018-10-21T16:13:03.175Z,2.60
2018-10-21T16:15:31.470Z,1.10
2018-10-21T16:18:02.193Z,3.13
2018-10-21T16:20:30.380Z,0.60
2018-10-21T16:22:58.580Z,1.83
2018-10-21T16:25:26.937Z,2.47
2018-10-21T16:27:55.351Z,2.27
2018-10-21T16:30:23.439Z,3.17
2018-10-21T16:32:51.667Z,1.40
2018-10-21T16:35:19.840Z,2.27
2018-10-21T16:37:48.242Z,4.97
2018-10-21T16:40:16.999Z,3.10
2018-10-21T16:42:45.228Z,3.40
2018-10-21T16:45:14.136Z,5.17
2018-10-21T16:47:42.316Z,3.90
2018-10-21T16:50:12.613Z,4.43
2018-10-21T16:52:41.416Z,3.83
2018-10-21T16:55:10.351Z,6.33
2018-10-21T16:57:38.767Z,3.53
2018-10-21T17:00:09.300Z,5.20
2018-10-21T17:02:37.455Z,3.67
2018-10-21T17:05:06.222Z,4.47
2018-10-21T17:07:34.537Z,3.30
2018-10-21T17:10:03.154Z,2.90
2018-10-21T17:12:31.048Z,2.00
2018-10-21T17:14:59.272Z,3.63
2018-10-21T17:17:29.851Z,2.50
2018-10-21T17:19:58.184Z,2.30
2018-10-21T17:22:26.437Z,2.47
2018-10-21T17:24:54.677Z,2.23
2018-10-21T17:27:24.969Z,4.27
2018-10-21T17:29:53.321Z,3.07
2018-10-21T17:32:21.593Z,2.07
2018-10-21T17:34:49.865Z,2.63
2018-10-21T17:37:18.079Z,2.50
2018-10-21T17:39:46.303Z,2.80
2018-10-21T17:42:14.484Z,3.20
2018-10-21T17:44:42.724Z,2.97
2018-10-21T17:47:10.975Z,2.07
2018-10-21T17:49:39.243Z,2.43
2018-10-21T17:52:07.533Z,3.13
2018-10-21T17:54:35.946Z,2.00
2018-10-21T17:57:04.207Z,2.23
2018-10-21T17:59:33.433Z,3.10
2018-10-21T18:02:01.668Z,2.60
2018-10-21T18:04:29.883Z,2.40
2018-10-21T18:06:58.173Z,2.77
2018-10-21T18:09:26.840Z,2.43
2018-10-21T18:11:55.173Z,3.70
2018-10-21T18:14:23.377Z,5.87
2018-10-21T18:16:51.606Z,2.93
2018-10-21T18:19:19.880Z,2.13
2018-10-21T18:21:48.208Z,2.80
2018-10-21T18:24:16.424Z,3.10
2018-10-21T18:26:44.658Z,3.20
2018-10-21T18:29:13.292Z,2.13
2018-10-21T18:31:41.518Z,2.70
2018-10-21T18:34:09.833Z,2.70
2018-10-21T18:36:38.021Z,3.33
2018-10-21T18:39:07.947Z,2.80
2018-10-21T18:41:36.173Z,2.60
2018-10-21T18:44:04.727Z,4.00
2018-10-21T18:46:33.036Z,6.33
2018-10-21T18:49:01.326Z,3.13
2018-10-21T18:51:29.484Z,4.03
2018-10-21T18:53:57.740Z,3.13
2018-10-21T18:56:25.937Z,3.43
2018-10-21T18:58:54.185Z,3.67
2018-10-21T19:01:22.639Z,4.10
2018-10-21T19:03:50.889Z,2.90
2018-10-21T19:06:19.091Z,2.30
2018-10-21T19:08:47.343Z,2.90
2018-10-21T19:11:15.734Z,1.93
2018-10-21T19:13:43.848Z,4.10
2018-10-21T19:16:12.139Z,2.77
2018-10-21T19:18:40.418Z,3.33
2018-10-21T19:21:08.627Z,3.00
2018-10-21T19:23:36.872Z,4.17
2018-10-21T19:26:05.194Z,2.47
2018-10-21T19:28:33.437Z,3.30
2018-10-21T19:31:01.663Z,3.67
2018-10-21T19:33:29.932Z,4.07
2018-10-21T19:35:58.151Z,2.27
2018-10-21T19:38:26.422Z,3.12
2018-10-21T19:40:54.807Z,3.13
2018-10-21T19:43:23.455Z,2.70
2018-10-21T19:45:51.618Z,3.47
2018-10-21T19:48:19.888Z,3.43
2018-10-21T19:50:48.073Z,3.17
2018-10-21T19:53:16.283Z,2.40
2018-10-21T19:55:44.525Z,2.53
2018-10-21T19:58:12.861Z,2.30
2018-10-21T20:00:41.050Z,2.20
2018-10-21T20:03:09.242Z,2.50
2018-10-21T20:05:37.454Z,3.13
2018-10-21T20:08:05.712Z,3.60
2018-10-21T20:10:33.945Z,4.17
2018-10-21T20:13:02.156Z,1.87
2018-10-21T20:15:30.401Z,2.97
2018-10-21T20:17:58.623Z,2.90
2018-10-21T20:20:26.850Z,2.13
2018-10-21T20:22:55.055Z,4.87
2018-10-21T20:25:23.427Z,1.77
2018-10-21T20:27:51.833Z,2.47
2018-10-21T20:30:20.103Z,1.98
2018-10-21T20:32:48.418Z,2.50
2018-10-21T20:35:16.598Z,3.67
2018-10-21T20:37:44.838Z,2.33
2018-10-21T20:40:13.152Z,5.03
2018-10-21T20:42:41.291Z,3.05
2018-10-21T20:45:10.815Z,3.72
2018-10-21T20:47:39.095Z,2.22
2018-10-21T20:50:07.325Z,4.58
2018-10-21T20:52:35.658Z,1.72
2018-10-21T20:55:03.966Z,2.33
2018-10-21T20:57:33.770Z,2.37
2018-10-21T21:00:02.052Z,3.60
2018-10-21T21:02:30.252Z,3.20
2018-10-21T21:04:58.480Z,4.00
2018-10-21T21:07:27.249Z,2.23
2018-10-21T21:09:55.476Z,3.17
2018-10-21T21:12:23.804Z,3.97
2018-10-21T21:14:52.035Z,3.17
2018-10-21T21:17:20.287Z,3.22
2018-10-21T21:19:48.509Z,4.72
2018-10-21T21:22:16.866Z,3.52
2018-10-21T21:24:44.966Z,2.75
2018-10-21T21:27:13.225Z,3.53
2018-10-21T21:29:41.508Z,3.33
2018-10-21T21:32:09.734Z,3.97
2018-10-21T21:34:37.980Z,3.00
2018-10-21T21:37:06.262Z,3.30
2018-10-21T21:39:34.894Z,3.70
2018-10-21T21:42:03.149Z,3.80
2018-10-21T21:44:31.384Z,5.25
2018-10-21T21:46:59.651Z,4.00
2018-10-21T21:49:28.680Z,2.55
2018-10-21T21:51:56.951Z,3.23
2018-10-21T21:54:25.106Z,4.65
2018-10-21T21:56:53.332Z,3.40
2018-10-21T21:59:22.904Z,5.22
2018-10-21T22:01:51.255Z,8.10
2018-10-21T22:04:19.576Z,3.92
2018-10-21T22:06:47.787Z,7.93
2018-10-21T22:09:16.002Z,4.42
2018-10-21T22:11:44.257Z,3.00
2018-10-21T22:14:12.491Z,2.15
2018-10-21T22:16:40.715Z,2.53
2018-10-21T22:19:09.175Z,3.37
2018-10-21T22:21:38.307Z,2.67
2018-10-21T22:24:07.227Z,2.42
2018-10-21T22:26:35.443Z,4.73
2018-10-21T22:29:03.690Z,6.15
2018-10-21T22:31:32.514Z,2.40
2018-10-21T22:34:00.752Z,2.35
2018-10-21T22:36:28.970Z,6.85
2018-10-21T22:38:57.240Z,5.47
2018-10-21T22:41:25.477Z,8.83
2018-10-21T22:43:53.725Z,7.35
2018-10-21T22:46:21.919Z,5.30
2018-10-21T22:48:50.115Z,4.45
2018-10-21T22:51:18.478Z,3.33
2018-10-21T22:53:46.725Z,3.25
2018-10-21T22:56:15.010Z,6.70
2018-10-21T22:58:43.261Z,5.62
2018-10-21T23:01:11.507Z,4.63
2018-10-21T23:03:39.688Z,4.53
2018-10-21T23:06:07.946Z,4.80
2018-10-21T23:08:36.115Z,3.65
2018-10-21T23:11:04.360Z,6.10
2018-10-21T23:13:33.200Z,10.38
2018-10-21T23:16:01.428Z,9.67
2018-10-21T23:18:29.776Z,13.15
2018-10-21T23:20:57.984Z,12.73
2018-10-21T23:23:26.195Z,11.83
2018-10-21T23:25:54.439Z,9.70
2018-10-21T23:28:22.688Z,11.78
2018-10-21T23:30:50.886Z,5.50
2018-10-21T23:33:19.111Z,8.18
2018-10-21T23:35:47.361Z,7.40
2018-10-21T23:38:15.592Z,7.28
2018-10-21T23:40:43.820Z,11.37
2018-10-21T23:43:12.038Z,12.85
2018-10-21T23:45:40.275Z,9.87
2018-10-21T23:48:08.537Z,14.28
2018-10-21T23:50:36.743Z,12.13
2018-10-21T23:53:05.423Z,9.15
2018-10-21T23:55:35.917Z,7.57
2018-10-21T23:58:04.225Z,4.33
